createdAt,value
2022-12-16T00:01:26.429Z,66.19
2022-12-16T00:03:55.626Z,66.51
2022-12-16T00:06:25.277Z,66.30
2022-12-16T00:08:53.706Z,66.51
2022-12-16T00:11:22.603Z,67.54
2022-12-16T00:13:51.876Z,67.33
2022-12-16T00:16:21.821Z,67.40
2022-12-16T00:18:51.762Z,67.53
2022-12-16T00:21:21.837Z,67.49
2022-12-16T00:23:49.811Z,67.86
2022-12-16T00:26:17.429Z,67.48
2022-12-16T00:28:45.085Z,67.72
2022-12-16T00:31:14.249Z,66.38
2022-12-16T00:33:42.124Z,67.03
2022-12-16T00:36:10.892Z,66.86
2022-12-16T00:38:39.326Z,66.87
2022-12-16T00:41:07.143Z,66.57
2022-12-16T00:43:36.218Z,67.00
2022-12-16T00:46:04.098Z,66.95
2022-12-16T00:48:33.240Z,67.19
2022-12-16T00:51:00.900Z,67.71
2022-12-16T00:53:28.592Z,67.46
2022-12-16T00:56:03.044Z,67.39
2022-12-16T00:58:30.823Z,67.37
2022-12-16T01:00:58.573Z,67.51
2022-12-16T01:03:26.453Z,67.51
2022-12-16T01:05:55.570Z,66.93
2022-12-16T01:08:23.351Z,67.06
2022-12-16T01:10:51.869Z,67.36
2022-12-16T01:13:20.326Z,67.17
2022-12-16T01:15:48.287Z,67.56
2022-12-16T01:18:16.459Z,67.76
2022-12-16T01:20:44.104Z,68.24
2022-12-16T01:23:13.101Z,68.90
2022-12-16T01:25:40.766Z,68.33
2022-12-16T01:28:08.472Z,67.85
2022-12-16T01:30:36.736Z,67.35
2022-12-16T01:33:04.486Z,67.67
2022-12-16T01:38:21.420Z,67.14
2022-12-16T01:40:49.029Z,67.20
2022-12-16T01:43:17.918Z,66.86
2022-12-16T01:45:45.700Z,66.85
2022-12-16T01:48:22.009Z,66.73
2022-12-16T01:50:51.593Z,67.10
2022-12-16T01:53:22.700Z,67.38
2022-12-16T01:55:53.594Z,67.56
2022-12-16T01:58:24.977Z,67.76
2022-12-16T02:00:52.964Z,68.23
2022-12-16T02:03:23.555Z,68.16
2022-12-16T02:05:51.878Z,68.11
2022-12-16T02:08:22.709Z,67.82
2022-12-16T02:11:05.368Z,68.55
2022-12-16T02:13:42.109Z,68.01
2022-12-16T02:16:19.722Z,67.60
2022-12-16T02:18:56.789Z,67.62
2022-12-16T02:21:48.741Z,68.25
2022-12-16T02:25:00.985Z,67.88
2022-12-16T02:27:47.114Z,68.15
2022-12-16T02:30:53.038Z,68.30
2022-12-16T02:33:49.413Z,68.50
2022-12-16T02:36:26.083Z,67.92
2022-12-16T02:39:00.306Z,68.38
2022-12-16T02:41:38.927Z,67.91
2022-12-16T02:44:09.537Z,68.11
2022-12-16T02:46:43.222Z,68.03
2022-12-16T02:49:45.930Z,67.89
2022-12-16T02:52:14.693Z,67.58
2022-12-16T02:54:44.103Z,67.03
2022-12-16T02:57:27.667Z,67.00
2022-12-16T03:00:01.580Z,66.73
2022-12-16T03:02:38.084Z,66.46
2022-12-16T03:05:11.667Z,66.27
2022-12-16T03:07:42.237Z,67.24
2022-12-16T03:10:15.568Z,66.54
2022-12-16T03:12:45.891Z,66.91
2022-12-16T03:15:17.281Z,66.73
2022-12-16T03:17:49.855Z,66.88
2022-12-16T03:20:23.961Z,66.35
2022-12-16T03:22:56.033Z,66.99
2022-12-16T03:25:26.065Z,67.51
2022-12-16T03:28:00.244Z,66.76
2022-12-16T03:30:33.157Z,67.18
2022-12-16T03:33:07.178Z,67.74
2022-12-16T03:35:39.109Z,67.09
2022-12-16T03:38:11.737Z,67.30
2022-12-16T03:40:42.159Z,67.98
2022-12-16T03:43:12.300Z,67.99
2022-12-16T03:45:44.122Z,68.53
2022-12-16T03:48:17.497Z,68.41
2022-12-16T03:50:45.547Z,68.96
2022-12-16T03:53:13.306Z,68.35
2022-12-16T03:55:42.268Z,69.32
2022-12-16T03:58:10.075Z,68.94
2022-12-16T04:00:38.401Z,69.15
2022-12-16T04:03:06.780Z,70.90
2022-12-16T04:05:36.356Z,70.17
2022-12-16T04:08:04.126Z,71.32
2022-12-16T04:10:49.824Z,72.12
2022-12-16T04:13:35.588Z,72.38
2022-12-16T04:16:21.167Z,72.63
2022-12-16T04:19:07.060Z,73.54
2022-12-16T04:21:53.401Z,73.43
2022-12-16T04:24:31.725Z,74.44
2022-12-16T04:27:22.161Z,75.16
2022-12-16T04:30:07.516Z,76.43
2022-12-16T04:32:49.179Z,76.69
2022-12-16T04:35:30.992Z,77.43
2022-12-16T04:38:16.587Z,77.83
2022-12-16T04:41:01.723Z,78.37
2022-12-16T04:43:47.278Z,77.98
2022-12-16T04:46:37.851Z,78.35
2022-12-16T04:49:23.017Z,78.22
2022-12-16T04:52:08.466Z,77.98
2022-12-16T04:54:55.085Z,79.48
2022-12-16T04:57:40.402Z,79.48
2022-12-16T05:00:26.645Z,80.04
2022-12-16T05:03:11.991Z,78.69
2022-12-16T05:05:57.290Z,79.63
2022-12-16T05:08:42.285Z,80.61
2022-12-16T05:11:28.660Z,80.49
2022-12-16T05:14:14.109Z,80.68
2022-12-16T05:16:59.255Z,80.85
2022-12-16T05:19:44.579Z,81.24
2022-12-16T05:22:31.081Z,81.49
2022-12-16T05:25:12.768Z,80.92
2022-12-16T05:27:59.667Z,81.53
2022-12-16T05:30:44.799Z,82.00
2022-12-16T05:33:41.546Z,83.07
2022-12-16T05:36:27.882Z,82.87
2022-12-16T05:39:13.227Z,82.44
2022-12-16T05:41:59.153Z,83.09
2022-12-16T05:44:46.405Z,83.09
2022-12-16T05:47:31.662Z,84.14
2022-12-16T05:50:17.070Z,83.93
2022-12-16T05:53:07.748Z,84.27
2022-12-16T05:55:53.004Z,84.00
2022-12-16T05:58:38.206Z,83.58
2022-12-16T06:01:25.680Z,83.59
2022-12-16T06:04:17.105Z,84.71
2022-12-16T06:07:03.134Z,83.88
2022-12-16T06:09:53.170Z,83.79
2022-12-16T06:12:41.712Z,84.07
2022-12-16T06:15:27.721Z,84.56
2022-12-16T06:18:14.318Z,84.90
2022-12-16T06:20:59.674Z,84.45
2022-12-16T06:23:44.729Z,85.09
2022-12-16T06:26:30.325Z,84.88
2022-12-16T06:29:15.742Z,85.79
2022-12-16T06:32:16.111Z,84.74
2022-12-16T06:35:02.769Z,85.21
2022-12-16T06:37:48.178Z,84.87
2022-12-16T06:40:33.613Z,85.31
2022-12-16T06:43:19.124Z,84.87
2022-12-16T06:46:04.268Z,85.15
2022-12-16T06:48:49.969Z,84.84
2022-12-16T06:51:36.365Z,85.58
2022-12-16T06:54:21.618Z,84.75
2022-12-16T06:57:06.887Z,85.49
2022-12-16T06:59:52.297Z,85.17
2022-12-16T07:02:37.488Z,85.12
2022-12-16T07:05:23.390Z,84.63
2022-12-16T07:08:10.832Z,84.99
2022-12-16T07:11:03.421Z,84.73
2022-12-16T07:14:02.693Z,85.30
2022-12-16T07:16:48.045Z,85.58
2022-12-16T07:19:35.001Z,85.35
2022-12-16T07:22:20.585Z,85.68
2022-12-16T07:25:06.916Z,85.30
2022-12-16T07:27:51.928Z,85.53
2022-12-16T07:30:37.127Z,86.46
2022-12-16T07:33:22.205Z,85.68
2022-12-16T07:36:07.565Z,85.81
2022-12-16T07:38:53.050Z,85.86
2022-12-16T07:41:39.666Z,85.28
2022-12-16T07:44:24.868Z,85.38
2022-12-16T07:47:10.091Z,85.80
2022-12-16T07:49:55.697Z,85.69
2022-12-16T07:53:11.913Z,85.89
2022-12-16T07:55:59.200Z,85.37
2022-12-16T07:58:46.465Z,85.81
2022-12-16T08:01:32.109Z,85.49
2022-12-16T08:04:18.642Z,85.95
2022-12-16T08:07:04.123Z,85.86
2022-12-16T08:09:49.696Z,85.65
2022-12-16T08:12:35.107Z,85.98
2022-12-16T08:15:21.843Z,84.97
2022-12-16T08:18:07.991Z,84.66
2022-12-16T08:20:54.025Z,85.85
2022-12-16T08:23:40.866Z,85.73
2022-12-16T08:26:26.245Z,85.31
2022-12-16T08:29:35.045Z,85.57
2022-12-16T08:32:18.230Z,85.45
2022-12-16T08:35:03.634Z,84.68
2022-12-16T08:37:54.329Z,85.66
2022-12-16T08:40:40.839Z,84.23
2022-12-16T08:43:25.909Z,84.09
2022-12-16T08:46:12.781Z,83.30
2022-12-16T08:48:59.539Z,83.40
2022-12-16T08:51:45.621Z,83.86
2022-12-16T08:54:30.757Z,82.91
2022-12-16T08:57:16.152Z,83.51
2022-12-16T09:00:01.454Z,81.49
2022-12-16T09:02:46.999Z,82.44
2022-12-16T09:05:33.539Z,82.41
2022-12-16T09:08:19.333Z,82.74
2022-12-16T09:11:04.736Z,81.80
2022-12-16T09:13:49.952Z,81.42
2022-12-16T09:16:35.134Z,81.45
2022-12-16T09:19:20.276Z,80.34
2022-12-16T09:22:06.847Z,80.58
2022-12-16T09:24:52.355Z,80.12
2022-12-16T09:27:37.837Z,79.55
2022-12-16T09:30:24.343Z,80.66
2022-12-16T09:33:09.500Z,80.06
2022-12-16T09:35:54.556Z,80.00
2022-12-16T09:38:42.308Z,78.88
2022-12-16T09:41:44.848Z,77.02
2022-12-16T09:44:40.351Z,76.76
2022-12-16T09:47:34.827Z,77.28
2022-12-16T09:50:20.582Z,77.06
2022-12-16T09:53:12.732Z,77.11
2022-12-16T09:56:01.017Z,76.53
2022-12-16T09:58:53.100Z,76.35
2022-12-16T10:01:40.481Z,75.35
2022-12-16T10:04:26.698Z,74.71
2022-12-16T10:07:16.341Z,74.90
2022-12-16T10:10:12.925Z,74.29
2022-12-16T10:13:05.709Z,73.54
2022-12-16T10:15:57.759Z,74.32
2022-12-16T10:19:05.289Z,74.65
2022-12-16T10:21:56.032Z,74.34
2022-12-16T10:24:53.451Z,73.80
2022-12-16T10:27:49.148Z,73.92
2022-12-16T10:30:35.560Z,73.54
2022-12-16T10:33:21.499Z,73.87
2022-12-16T10:36:09.884Z,73.27
2022-12-16T10:38:59.584Z,73.74
2022-12-16T10:41:47.869Z,73.02
2022-12-16T10:44:42.091Z,72.73
2022-12-16T10:47:30.633Z,72.64
2022-12-16T10:50:17.740Z,73.34
2022-12-16T10:53:09.452Z,72.65
2022-12-16T10:56:08.201Z,73.44
2022-12-16T10:59:04.308Z,72.60
2022-12-16T11:01:55.383Z,72.83
2022-12-16T11:04:50.198Z,71.82
2022-12-16T11:07:49.014Z,72.52
2022-12-16T11:10:50.395Z,71.75
2022-12-16T11:13:44.760Z,71.84
2022-12-16T11:16:50.514Z,72.20
2022-12-16T11:19:39.335Z,71.79
2022-12-16T11:22:33.127Z,71.49
2022-12-16T11:25:32.338Z,71.44
2022-12-16T11:28:23.952Z,71.37
2022-12-16T11:31:12.291Z,71.24
2022-12-16T11:33:58.640Z,71.54
2022-12-16T11:36:45.740Z,72.01
2022-12-16T11:39:35.651Z,71.70
2022-12-16T11:42:22.965Z,71.54
2022-12-16T11:45:12.692Z,70.05
2022-12-16T11:48:04.334Z,70.22
2022-12-16T11:50:54.000Z,69.83
2022-12-16T11:53:51.058Z,70.44
2022-12-16T11:56:42.897Z,69.55
2022-12-16T11:59:37.870Z,69.77
2022-12-16T12:02:33.056Z,70.18
2022-12-16T12:05:18.455Z,69.60
2022-12-16T12:08:24.117Z,68.30
2022-12-16T12:11:19.723Z,67.37
2022-12-16T12:14:19.957Z,67.37
2022-12-16T12:17:17.396Z,66.44
2022-12-16T12:20:12.638Z,66.89
2022-12-16T12:22:59.272Z,66.66
2022-12-16T12:26:04.757Z,66.04
2022-12-16T12:29:07.235Z,63.25
2022-12-16T12:32:03.144Z,61.20
2022-12-16T12:35:01.253Z,63.95
2022-12-16T12:37:52.677Z,61.92
2022-12-16T12:40:52.338Z,61.23
2022-12-16T12:43:50.090Z,63.48
2022-12-16T12:46:47.424Z,63.50
2022-12-16T12:49:41.127Z,65.28
2022-12-16T12:52:34.425Z,64.91
2022-12-16T12:55:28.597Z,64.89
2022-12-16T12:58:15.018Z,65.99
2022-12-16T13:01:04.941Z,66.35
2022-12-16T13:03:52.133Z,65.85
2022-12-16T13:06:41.499Z,65.24
2022-12-16T13:09:46.742Z,63.64
2022-12-16T13:12:41.494Z,64.24
2022-12-16T13:15:27.564Z,58.81
2022-12-16T13:18:51.202Z,56.62
2022-12-16T13:22:05.242Z,54.23
2022-12-16T13:25:02.984Z,53.84
2022-12-16T13:28:04.601Z,54.01
2022-12-16T13:30:52.064Z,54.44
2022-12-16T13:33:42.218Z,55.52
2022-12-16T13:36:29.037Z,56.16
2022-12-16T13:39:19.519Z,55.14
2022-12-16T13:42:09.495Z,55.41
2022-12-16T13:45:18.199Z,57.44
2022-12-16T13:48:23.742Z,56.38
2022-12-16T13:51:18.154Z,57.68
2022-12-16T13:54:08.292Z,56.74
2022-12-16T13:57:00.259Z,57.06
2022-12-16T13:59:49.803Z,57.86
2022-12-16T14:02:44.188Z,58.67
2022-12-16T14:05:37.859Z,57.65
2022-12-16T14:08:25.044Z,59.42
2022-12-16T14:11:19.120Z,58.54
2022-12-16T14:14:11.689Z,60.12
2022-12-16T14:17:09.215Z,62.62
2022-12-16T14:20:05.495Z,63.14
2022-12-16T14:23:06.212Z,63.47
2022-12-16T14:25:51.249Z,65.83
2022-12-16T14:28:45.549Z,66.77
2022-12-16T14:31:35.882Z,67.37
2022-12-16T14:34:21.764Z,68.61
2022-12-16T14:37:07.331Z,68.24
2022-12-16T14:39:57.481Z,68.74
2022-12-16T14:42:44.400Z,70.72
2022-12-16T14:45:41.721Z,68.75
2022-12-16T14:48:49.895Z,69.03
2022-12-16T14:51:42.170Z,69.23
2022-12-16T14:54:45.141Z,69.41
2022-12-16T14:57:33.667Z,69.94
2022-12-16T15:00:30.718Z,69.25
2022-12-16T15:03:20.812Z,69.31
2022-12-16T15:06:11.721Z,69.42
2022-12-16T15:09:09.009Z,70.14
2022-12-16T15:11:56.074Z,70.36
2022-12-16T15:14:46.477Z,70.42
2022-12-16T15:17:39.756Z,70.47
2022-12-16T15:20:35.714Z,69.98
2022-12-16T15:23:22.502Z,69.93
2022-12-16T15:26:12.771Z,70.47
2022-12-16T15:29:00.934Z,70.56
2022-12-16T15:31:50.488Z,70.58
2022-12-16T15:34:41.680Z,70.91
2022-12-16T15:37:34.857Z,71.65
2022-12-16T15:40:22.168Z,71.97
2022-12-16T15:43:10.790Z,72.58
2022-12-16T15:45:55.806Z,72.81
2022-12-16T15:48:44.697Z,73.45
2022-12-16T15:51:42.687Z,73.90
2022-12-16T15:54:35.471Z,74.35
2022-12-16T15:57:38.854Z,74.87
2022-12-16T16:00:40.386Z,74.95
2022-12-16T16:03:37.873Z,75.47
2022-12-16T16:06:30.838Z,75.42
2022-12-16T16:09:24.628Z,75.60
2022-12-16T16:12:09.737Z,75.65
2022-12-16T16:14:56.409Z,77.31
2022-12-16T16:17:42.272Z,78.52
2022-12-16T16:20:32.509Z,78.17
2022-12-16T16:23:17.869Z,78.75
2022-12-16T16:26:04.264Z,79.00
2022-12-16T16:28:49.512Z,80.56
2022-12-16T16:31:35.785Z,80.39
2022-12-16T16:34:21.032Z,80.69
2022-12-16T16:37:10.706Z,80.77
2022-12-16T16:39:56.124Z,80.57
2022-12-16T16:42:41.829Z,79.81
2022-12-16T16:45:27.741Z,80.63
2022-12-16T16:48:24.441Z,80.78
2022-12-16T16:51:09.330Z,81.24
2022-12-16T16:53:54.658Z,81.09
2022-12-16T16:56:40.052Z,82.14
2022-12-16T16:59:27.269Z,80.76
2022-12-16T17:02:13.010Z,80.74
2022-12-16T17:05:08.215Z,80.61
2022-12-16T17:08:08.368Z,80.57
2022-12-16T17:10:53.828Z,82.38
2022-12-16T17:13:39.312Z,82.33
2022-12-16T17:16:25.122Z,82.41
2022-12-16T17:19:10.572Z,82.56
2022-12-16T17:21:56.312Z,83.07
2022-12-16T17:24:46.978Z,84.00
2022-12-16T17:27:35.023Z,84.22
2022-12-16T17:30:20.728Z,83.36
2022-12-16T17:33:06.115Z,84.12
2022-12-16T17:35:51.136Z,84.43
2022-12-16T17:38:37.644Z,83.87
2022-12-16T17:41:23.177Z,84.45
2022-12-16T17:44:11.180Z,84.27
2022-12-16T17:46:56.475Z,84.53
2022-12-16T17:49:41.705Z,84.54
2022-12-16T17:52:26.960Z,84.74
2022-12-16T17:55:13.652Z,85.65
2022-12-16T17:57:59.115Z,85.64
2022-12-16T18:00:58.804Z,85.60
2022-12-16T18:03:44.674Z,85.60
2022-12-16T18:06:29.987Z,85.44
2022-12-16T18:09:15.477Z,85.52
2022-12-16T18:12:02.337Z,85.53
2022-12-16T18:14:47.787Z,86.35
2022-12-16T18:17:33.317Z,86.61
2022-12-16T18:20:18.981Z,86.92
2022-12-16T18:23:04.379Z,86.52
2022-12-16T18:25:59.203Z,85.67
2022-12-16T18:28:45.487Z,86.06
2022-12-16T18:31:30.659Z,86.54
2022-12-16T18:34:16.273Z,86.74
2022-12-16T18:37:01.360Z,86.58
2022-12-16T18:39:46.709Z,86.34
2022-12-16T18:42:32.290Z,86.57
2022-12-16T18:45:19.099Z,85.98
2022-12-16T18:48:04.155Z,85.83
2022-12-16T18:50:49.334Z,86.48
2022-12-16T18:53:34.878Z,87.30
2022-12-16T18:56:21.393Z,87.55
2022-12-16T18:59:02.956Z,87.39
2022-12-16T19:01:49.271Z,88.26
2022-12-16T19:04:34.851Z,87.43
2022-12-16T19:07:20.118Z,87.02
2022-12-16T19:10:05.302Z,86.88
2022-12-16T19:13:05.615Z,87.12
2022-12-16T19:15:59.014Z,87.48
2022-12-16T19:18:52.568Z,87.59
2022-12-16T19:21:52.401Z,88.25
2022-12-16T19:28:25.207Z,87.86
2022-12-16T19:31:18.280Z,88.93
2022-12-16T19:34:11.879Z,88.47
2022-12-16T19:36:58.450Z,88.35
2022-12-16T19:39:47.050Z,88.19
2022-12-16T19:42:36.952Z,88.05
2022-12-16T19:45:25.878Z,87.98
2022-12-16T19:48:27.028Z,87.54
2022-12-16T19:51:24.648Z,87.97
2022-12-16T19:54:52.308Z,88.54
2022-12-16T19:57:39.704Z,88.32
2022-12-16T20:00:36.730Z,89.01
2022-12-16T20:03:29.282Z,88.60
2022-12-16T20:06:29.771Z,89.26
2022-12-16T20:09:24.102Z,89.07
2022-12-16T20:12:17.583Z,89.11
2022-12-16T20:15:04.014Z,88.72
2022-12-16T20:17:52.212Z,88.22
2022-12-16T20:20:42.104Z,88.45
2022-12-16T20:23:32.156Z,88.11
2022-12-16T20:26:23.098Z,88.77
2022-12-16T20:29:23.519Z,88.64
2022-12-16T20:32:13.916Z,89.41
2022-12-16T20:35:06.697Z,88.95
2022-12-16T20:38:01.383Z,88.61
2022-12-16T20:41:06.847Z,89.24
2022-12-16T20:43:56.131Z,88.75
2022-12-16T20:46:45.809Z,88.52
2022-12-16T20:49:34.346Z,87.62
2022-12-16T20:52:23.699Z,87.99
2022-12-16T20:55:17.773Z,88.73
2022-12-16T20:58:19.227Z,88.42
2022-12-16T21:01:16.175Z,88.01
2022-12-16T21:04:04.323Z,88.63
2022-12-16T21:06:50.155Z,88.31
2022-12-16T21:09:55.187Z,88.73
2022-12-16T21:13:07.015Z,88.30
2022-12-16T21:16:06.846Z,88.64
2022-12-16T21:19:15.322Z,88.59
2022-12-16T21:22:00.722Z,87.81
2022-12-16T21:24:45.968Z,87.74
2022-12-16T21:27:31.328Z,87.96
2022-12-16T21:30:16.645Z,87.89
2022-12-16T21:33:03.503Z,87.70
2022-12-16T21:35:49.016Z,87.72
2022-12-16T21:38:34.055Z,87.81
2022-12-16T21:41:19.535Z,87.81
2022-12-16T21:44:04.458Z,87.78
2022-12-16T21:46:49.952Z,88.23
2022-12-16T21:49:44.844Z,87.97
2022-12-16T21:52:30.013Z,88.03
2022-12-16T21:55:15.196Z,88.27
2022-12-16T21:58:01.392Z,87.52
2022-12-16T22:00:47.562Z,88.50
2022-12-16T22:03:32.652Z,88.28
2022-12-16T22:06:19.319Z,87.75
2022-12-16T22:09:04.648Z,87.94
2022-12-16T22:11:50.056Z,87.72
2022-12-16T22:14:35.077Z,88.19
2022-12-16T22:17:20.541Z,87.36
2022-12-16T22:20:05.826Z,86.95
2022-12-16T22:22:52.223Z,87.64
2022-12-16T22:25:33.864Z,87.42
2022-12-16T22:28:19.010Z,88.00
2022-12-16T22:31:15.598Z,87.78
2022-12-16T22:34:01.438Z,88.19
2022-12-16T22:36:46.691Z,87.98
2022-12-16T22:39:32.896Z,87.94
2022-12-16T22:42:18.315Z,87.66
2022-12-16T22:45:03.653Z,87.36
2022-12-16T22:47:49.675Z,88.00
2022-12-16T22:50:43.714Z,88.45
2022-12-16T22:53:31.499Z,87.94
2022-12-16T22:56:17.869Z,88.41
2022-12-16T22:59:03.117Z,88.53
2022-12-16T23:01:48.649Z,89.19
2022-12-16T23:04:33.862Z,88.48
2022-12-16T23:07:19.193Z,88.04
2022-12-16T23:10:04.515Z,87.95
2022-12-16T23:12:51.278Z,88.51
2022-12-16T23:15:37.307Z,88.02
2022-12-16T23:18:22.369Z,88.29
2022-12-16T23:21:08.352Z,87.94
2022-12-16T23:23:56.949Z,88.05
2022-12-16T23:26:42.588Z,88.58
2022-12-16T23:29:28.882Z,88.60
2022-12-16T23:32:14.268Z,88.64
2022-12-16T23:34:59.655Z,88.33
2022-12-16T23:37:44.935Z,87.75
2022-12-16T23:40:31.044Z,88.17
2022-12-16T23:43:16.498Z,88.09
2022-12-16T23:46:02.871Z,87.95
2022-12-16T23:48:48.171Z,88.42
2022-12-16T23:51:33.233Z,88.11
2022-12-16T23:54:18.516Z,88.26
2022-12-16T23:57:03.922Z,88.78
2022-12-16T23:59:49.546Z,88.49
